createdAt,value
2019-02-15T00:00:54.325Z,14.97
2019-02-15T00:03:23.078Z,12.87
2019-02-15T00:05:51.209Z,15.03
2019-02-15T00:08:19.295Z,15.00
2019-02-15T00:10:47.410Z,18.17
2019-02-15T00:13:15.808Z,17.30
2019-02-15T00:15:43.943Z,14.60
2019-02-15T00:18:43.923Z,15.83
2019-02-15T00:21:17.549Z,15.23
2019-02-15T00:23:45.815Z,15.87
2019-02-15T00:26:13.966Z,16.10
2019-02-15T00:28:42.263Z,14.73
2019-02-15T00:31:12.764Z,16.47
2019-02-15T00:33:41.126Z,14.77
2019-02-15T00:36:09.561Z,16.87
2019-02-15T00:38:37.740Z,14.73
2019-02-15T00:41:05.941Z,19.47
2019-02-15T00:43:34.334Z,14.47
2019-02-15T00:46:12.497Z,14.93
2019-02-15T00:48:40.729Z,15.20
2019-02-15T00:51:29.239Z,14.90
2019-02-15T00:54:12.712Z,16.27
2019-02-15T00:57:02.479Z,15.03
2019-02-15T00:59:53.749Z,14.00
2019-02-15T01:02:41.440Z,19.57
2019-02-15T01:05:29.346Z,17.60
2019-02-15T01:08:13.928Z,17.37
2019-02-15T01:10:51.073Z,16.57
2019-02-15T01:13:21.688Z,17.33
2019-02-15T01:15:49.812Z,18.37
2019-02-15T01:18:18.330Z,15.63
2019-02-15T01:20:46.593Z,16.83
2019-02-15T01:23:14.673Z,14.10
2019-02-15T01:25:52.473Z,13.33
2019-02-15T01:28:26.108Z,12.43
2019-02-15T01:31:20.390Z,12.90
2019-02-15T01:34:11.440Z,12.57
2019-02-15T01:36:48.631Z,14.00
2019-02-15T01:39:34.815Z,13.53
2019-02-15T01:42:26.455Z,13.07
2019-02-15T01:45:00.130Z,11.43
2019-02-15T01:47:35.936Z,15.33
2019-02-15T01:50:04.108Z,13.87
2019-02-15T01:52:32.322Z,12.03
2019-02-15T01:55:00.401Z,13.87
2019-02-15T01:57:29.136Z,13.50
2019-02-15T01:59:57.253Z,12.00
2019-02-15T02:02:28.116Z,12.20
2019-02-15T02:04:56.242Z,13.70
2019-02-15T02:07:24.489Z,12.43
2019-02-15T02:09:53.680Z,13.20
2019-02-15T02:12:22.009Z,15.93
2019-02-15T02:14:50.040Z,12.00
2019-02-15T02:17:18.200Z,14.83
2019-02-15T02:19:46.273Z,15.17
2019-02-15T02:22:14.408Z,16.03
2019-02-15T02:24:42.521Z,16.47
2019-02-15T02:27:10.988Z,15.60
2019-02-15T02:29:39.129Z,12.97
2019-02-15T02:32:07.301Z,14.77
2019-02-15T02:34:35.423Z,15.10
2019-02-15T02:37:03.758Z,12.50
2019-02-15T02:39:31.900Z,12.87
2019-02-15T02:42:00.078Z,16.40
2019-02-15T02:44:28.205Z,15.93
2019-02-15T02:46:56.467Z,17.43
2019-02-15T02:49:24.530Z,17.10
2019-02-15T02:51:52.695Z,16.43
2019-02-15T02:54:20.808Z,17.97
2019-02-15T02:56:49.273Z,17.33
2019-02-15T02:59:17.450Z,17.47
2019-02-15T03:01:45.686Z,17.00
2019-02-15T03:04:14.044Z,20.07
2019-02-15T03:06:42.242Z,17.27
2019-02-15T03:09:11.627Z,19.43
2019-02-15T03:11:39.891Z,20.00
2019-02-15T03:14:11.475Z,14.10
2019-02-15T03:16:38.073Z,13.77
2019-02-15T03:19:06.267Z,14.63
2019-02-15T03:21:34.370Z,15.03
2019-02-15T03:24:02.469Z,14.33
2019-02-15T03:26:30.863Z,18.60
2019-02-15T03:28:59.670Z,13.53
2019-02-15T03:31:27.857Z,12.97
2019-02-15T03:33:56.064Z,14.10
2019-02-15T03:36:37.462Z,11.27
2019-02-15T03:39:14.077Z,12.57
2019-02-15T03:41:42.985Z,13.00
2019-02-15T03:44:21.480Z,15.73
2019-02-15T03:46:41.485Z,13.53
2019-02-15T03:49:09.719Z,19.07
2019-02-15T03:51:38.296Z,12.23
2019-02-15T03:54:06.473Z,12.97
2019-02-15T03:56:34.537Z,16.93
2019-02-15T03:59:02.662Z,14.27
2019-02-15T04:01:30.718Z,13.97
2019-02-15T04:03:58.838Z,13.50
2019-02-15T04:06:26.993Z,14.90
2019-02-15T04:08:55.222Z,14.40
2019-02-15T04:11:23.429Z,15.83
2019-02-15T04:13:51.844Z,12.63
2019-02-15T04:16:19.924Z,13.50
2019-02-15T04:18:48.256Z,21.17
2019-02-15T04:21:16.453Z,12.90
2019-02-15T04:23:45.897Z,13.30
2019-02-15T04:26:14.054Z,16.07
2019-02-15T04:28:42.287Z,14.27
2019-02-15T04:31:10.435Z,15.43
2019-02-15T04:33:38.529Z,13.93
2019-02-15T04:36:06.600Z,14.43
2019-02-15T04:38:34.840Z,15.60
2019-02-15T04:41:03.336Z,15.20
2019-02-15T04:43:31.630Z,13.00
2019-02-15T04:45:59.775Z,15.50
2019-02-15T04:48:27.978Z,13.13
2019-02-15T04:50:56.365Z,15.10
2019-02-15T04:53:24.626Z,13.43
2019-02-15T04:55:52.936Z,13.50
2019-02-15T04:58:21.061Z,14.97
2019-02-15T05:00:49.155Z,13.73
2019-02-15T05:03:19.465Z,14.50
2019-02-15T05:05:47.583Z,13.50
2019-02-15T05:08:15.766Z,15.53
2019-02-15T05:10:43.825Z,14.17
2019-02-15T05:13:11.958Z,16.07
2019-02-15T05:15:40.053Z,14.23
2019-02-15T05:18:08.194Z,12.63
2019-02-15T05:20:37.044Z,16.13
2019-02-15T05:23:05.164Z,14.10
2019-02-15T05:25:33.342Z,13.70
2019-02-15T05:28:01.467Z,14.20
2019-02-15T05:30:29.521Z,14.43
2019-02-15T05:32:57.727Z,14.50
2019-02-15T05:35:26.003Z,13.07
2019-02-15T05:37:54.151Z,13.60
2019-02-15T05:40:22.484Z,13.30
2019-02-15T05:42:50.870Z,20.57
2019-02-15T05:45:19.551Z,12.50
2019-02-15T05:47:47.699Z,15.20
2019-02-15T05:50:16.316Z,15.83
2019-02-15T05:52:44.526Z,14.93
2019-02-15T05:55:12.599Z,15.60
2019-02-15T05:57:40.808Z,15.47
2019-02-15T06:00:09.280Z,15.67
2019-02-15T06:02:37.613Z,17.03
2019-02-15T06:05:06.100Z,15.63
2019-02-15T06:07:34.435Z,16.97
2019-02-15T06:10:02.656Z,15.47
2019-02-15T06:12:30.855Z,14.57
2019-02-15T06:14:58.986Z,15.50
2019-02-15T06:17:27.112Z,12.77
2019-02-15T06:19:55.237Z,13.33
2019-02-15T06:22:23.481Z,13.83
2019-02-15T06:24:52.052Z,14.03
2019-02-15T06:27:20.101Z,13.40
2019-02-15T06:29:48.351Z,13.63
2019-02-15T06:32:16.539Z,15.57
2019-02-15T06:34:44.721Z,16.40
2019-02-15T06:37:12.943Z,15.30
2019-02-15T06:39:41.118Z,13.97
2019-02-15T06:42:09.212Z,15.40
2019-02-15T06:44:38.258Z,17.50
2019-02-15T06:47:06.439Z,12.07
2019-02-15T06:49:34.857Z,15.63
2019-02-15T06:52:03.068Z,12.87
2019-02-15T06:54:31.248Z,15.00
2019-02-15T06:56:59.347Z,12.43
2019-02-15T06:59:47.313Z,12.23
2019-02-15T07:02:35.211Z,14.83
2019-02-15T07:05:22.269Z,12.97
2019-02-15T07:07:50.411Z,11.20
2019-02-15T07:10:18.525Z,13.83
2019-02-15T07:12:47.256Z,14.20
2019-02-15T07:15:15.452Z,14.60
2019-02-15T07:17:43.558Z,15.27
2019-02-15T07:20:11.684Z,14.53
2019-02-15T07:22:39.850Z,15.37
2019-02-15T07:25:09.132Z,13.90
2019-02-15T07:27:37.219Z,15.50
2019-02-15T07:30:07.285Z,18.53
2019-02-15T07:32:35.381Z,16.23
2019-02-15T07:35:03.844Z,20.40
2019-02-15T07:37:32.261Z,18.77
2019-02-15T07:40:00.472Z,15.50
2019-02-15T07:42:28.575Z,19.03
2019-02-15T07:44:56.779Z,12.83
2019-02-15T07:47:24.910Z,12.67
2019-02-15T07:49:53.060Z,13.33
2019-02-15T07:52:21.629Z,12.80
2019-02-15T07:54:50.144Z,11.73
2019-02-15T07:57:18.212Z,14.07
2019-02-15T07:59:46.495Z,13.63
2019-02-15T08:02:14.572Z,11.33
2019-02-15T08:04:42.692Z,14.07
2019-02-15T08:07:10.769Z,13.63
2019-02-15T08:09:38.886Z,12.47
2019-02-15T08:12:07.811Z,12.57
2019-02-15T08:14:35.914Z,12.17
2019-02-15T08:17:03.987Z,13.00
2019-02-15T08:19:32.107Z,17.57
2019-02-15T08:22:00.644Z,11.83
2019-02-15T08:24:29.248Z,15.10
2019-02-15T08:26:57.305Z,13.33
2019-02-15T08:29:25.516Z,15.13
2019-02-15T08:31:53.697Z,15.87
2019-02-15T08:34:22.221Z,13.73
2019-02-15T08:36:50.362Z,14.80
2019-02-15T08:39:18.496Z,15.40
2019-02-15T08:42:00.286Z,16.00
2019-02-15T08:44:16.939Z,13.80
2019-02-15T08:46:45.222Z,12.70
2019-02-15T08:49:13.454Z,13.30
2019-02-15T08:51:41.891Z,13.00
2019-02-15T08:54:10.337Z,13.47
2019-02-15T08:56:38.424Z,12.03
2019-02-15T08:59:06.633Z,12.90
2019-02-15T09:01:34.810Z,14.73
2019-02-15T09:04:02.926Z,12.00
2019-02-15T09:06:31.172Z,12.50
2019-02-15T09:08:59.363Z,12.03
2019-02-15T09:11:27.532Z,10.83
2019-02-15T09:13:55.736Z,12.27
2019-02-15T09:16:23.842Z,8.90
2019-02-15T09:18:51.954Z,12.03
2019-02-15T09:21:20.043Z,11.33
2019-02-15T09:23:48.271Z,13.53
2019-02-15T09:26:18.432Z,10.20
2019-02-15T09:28:53.761Z,13.00
2019-02-15T09:31:21.856Z,13.73
2019-02-15T09:33:50.007Z,11.37
2019-02-15T09:36:18.112Z,11.00
2019-02-15T09:38:46.589Z,10.57
2019-02-15T09:41:14.774Z,11.73
2019-02-15T09:43:42.873Z,11.83
2019-02-15T09:46:19.592Z,13.67
2019-02-15T09:48:41.618Z,12.57
2019-02-15T09:51:11.151Z,14.13
2019-02-15T09:53:39.322Z,14.27
2019-02-15T09:56:07.448Z,10.90
2019-02-15T09:58:35.533Z,14.53
2019-02-15T10:01:03.715Z,13.20
2019-02-15T10:03:31.795Z,11.57
2019-02-15T10:05:59.913Z,12.17
2019-02-15T10:08:28.008Z,10.87
2019-02-15T10:10:56.218Z,10.70
2019-02-15T10:13:24.860Z,10.97
2019-02-15T10:15:53.296Z,12.00
2019-02-15T10:18:21.387Z,11.87
2019-02-15T10:20:49.565Z,11.23
2019-02-15T10:23:17.702Z,13.03
2019-02-15T10:25:46.184Z,10.93
2019-02-15T10:28:14.373Z,10.20
2019-02-15T10:30:42.500Z,9.37
2019-02-15T10:33:10.558Z,11.67
2019-02-15T10:35:38.657Z,10.90
2019-02-15T10:38:06.796Z,10.90
2019-02-15T10:40:34.914Z,10.50
2019-02-15T10:43:03.055Z,10.17
2019-02-15T10:45:31.619Z,7.37
2019-02-15T10:47:59.990Z,9.30
2019-02-15T10:50:29.126Z,10.00
2019-02-15T10:52:57.320Z,7.87
2019-02-15T10:55:25.434Z,9.63
2019-02-15T10:57:53.507Z,8.70
2019-02-15T11:00:21.750Z,9.03
2019-02-15T11:02:49.886Z,8.40
2019-02-15T11:05:18.803Z,6.33
2019-02-15T11:07:48.664Z,7.83
2019-02-15T11:10:17.085Z,15.60
2019-02-15T11:12:45.166Z,8.07
2019-02-15T11:15:20.833Z,7.33
2019-02-15T11:17:49.724Z,9.03
2019-02-15T11:20:19.363Z,7.80
2019-02-15T11:22:48.073Z,7.53
2019-02-15T11:25:16.287Z,7.47
2019-02-15T11:27:44.416Z,7.27
2019-02-15T11:30:13.303Z,9.47
2019-02-15T11:32:41.740Z,6.80
2019-02-15T11:35:10.979Z,7.47
2019-02-15T11:37:39.168Z,6.50
2019-02-15T11:40:10.113Z,6.37
2019-02-15T11:42:38.149Z,7.77
2019-02-15T11:45:09.604Z,4.97
2019-02-15T11:47:37.635Z,6.50
2019-02-15T11:50:07.764Z,5.40
2019-02-15T11:52:35.840Z,5.97
2019-02-15T11:55:04.570Z,7.10
2019-02-15T11:57:32.665Z,5.77
2019-02-15T12:00:00.874Z,5.33
2019-02-15T12:02:29.304Z,6.17
2019-02-15T12:04:57.430Z,8.00
2019-02-15T12:07:25.624Z,5.27
2019-02-15T12:09:53.746Z,4.43
2019-02-15T12:12:21.898Z,4.53
2019-02-15T12:14:50.064Z,6.30
2019-02-15T12:17:18.559Z,4.67
2019-02-15T12:19:46.897Z,6.50
2019-02-15T12:22:15.189Z,4.93
2019-02-15T12:24:43.378Z,6.13
2019-02-15T12:27:11.633Z,5.13
2019-02-15T12:29:40.118Z,5.27
2019-02-15T12:32:08.272Z,5.43
2019-02-15T12:34:36.757Z,4.60
2019-02-15T12:37:04.866Z,5.87
2019-02-15T12:39:33.036Z,4.70
2019-02-15T12:42:01.159Z,5.17
2019-02-15T12:44:29.275Z,4.33
2019-02-15T12:46:57.666Z,5.07
2019-02-15T12:49:25.810Z,4.00
2019-02-15T12:51:54.025Z,4.63
2019-02-15T12:54:22.416Z,4.43
2019-02-15T12:56:50.527Z,3.53
2019-02-15T12:59:18.623Z,4.10
2019-02-15T13:01:46.734Z,4.10
2019-02-15T13:04:14.839Z,4.40
2019-02-15T13:06:43.239Z,3.87
2019-02-15T13:09:11.770Z,4.43
2019-02-15T13:11:39.914Z,4.90
2019-02-15T13:14:07.981Z,4.63
2019-02-15T13:16:36.420Z,4.40
2019-02-15T13:19:04.522Z,5.93
2019-02-15T13:21:33.326Z,4.63
2019-02-15T13:24:01.925Z,5.10
2019-02-15T13:26:30.137Z,5.03
2019-02-15T13:28:59.107Z,5.23
2019-02-15T13:31:27.334Z,3.90
2019-02-15T13:33:57.083Z,4.03
2019-02-15T13:36:25.673Z,4.83
2019-02-15T13:38:54.273Z,5.37
2019-02-15T13:41:24.615Z,4.47
2019-02-15T13:43:52.437Z,5.57
2019-02-15T13:46:20.563Z,5.13
2019-02-15T13:48:48.703Z,4.27
2019-02-15T13:51:16.842Z,5.80
2019-02-15T13:53:44.984Z,3.70
2019-02-15T13:56:13.118Z,4.50
2019-02-15T13:58:41.676Z,4.33
2019-02-15T14:01:09.757Z,3.37
2019-02-15T14:03:37.855Z,3.97
2019-02-15T14:06:06.350Z,3.57
2019-02-15T14:08:34.713Z,4.17
2019-02-15T14:11:02.847Z,3.40
2019-02-15T14:13:31.395Z,3.77
2019-02-15T14:15:59.622Z,4.00
2019-02-15T14:18:27.772Z,3.30
2019-02-15T14:20:56.182Z,3.37
2019-02-15T14:23:24.275Z,3.30
2019-02-15T14:25:52.515Z,3.93
2019-02-15T14:28:21.003Z,3.00
2019-02-15T14:30:49.187Z,4.20
2019-02-15T14:33:17.275Z,5.33
2019-02-15T14:35:45.360Z,5.23
2019-02-15T14:38:13.481Z,3.30
2019-02-15T14:40:41.680Z,3.33
2019-02-15T14:43:09.821Z,3.47
2019-02-15T14:45:37.960Z,5.13
2019-02-15T14:48:06.032Z,5.63
2019-02-15T14:50:34.190Z,3.23
2019-02-15T14:53:02.253Z,4.03
2019-02-15T14:55:30.474Z,5.17
2019-02-15T14:57:58.593Z,3.37
2019-02-15T15:00:26.701Z,3.97
2019-02-15T15:02:54.814Z,3.00
2019-02-15T15:05:22.962Z,3.80
2019-02-15T15:07:51.148Z,3.10
2019-02-15T15:10:19.306Z,2.30
2019-02-15T15:12:47.443Z,3.10
2019-02-15T15:15:17.313Z,3.87
2019-02-15T15:17:45.431Z,3.67
2019-02-15T15:20:13.646Z,4.00
2019-02-15T15:22:41.903Z,5.67
2019-02-15T15:25:10.755Z,3.47
2019-02-15T15:27:39.315Z,3.83
2019-02-15T15:30:09.562Z,3.17
2019-02-15T15:32:37.731Z,4.17
2019-02-15T15:35:06.618Z,3.17
2019-02-15T15:37:34.701Z,2.70
2019-02-15T15:40:03.307Z,2.57
2019-02-15T15:42:31.410Z,2.67
2019-02-15T15:44:59.539Z,3.27
2019-02-15T15:47:27.812Z,7.80
2019-02-15T15:49:56.422Z,4.30
2019-02-15T15:52:25.438Z,2.83
2019-02-15T15:54:53.622Z,5.47
2019-02-15T15:57:21.872Z,4.00
2019-02-15T15:59:49.973Z,5.23
2019-02-15T16:02:18.645Z,3.53
2019-02-15T16:04:46.876Z,3.20
2019-02-15T16:07:14.971Z,6.17
2019-02-15T16:09:43.134Z,3.20
2019-02-15T16:12:11.237Z,3.50
2019-02-15T16:14:39.313Z,4.43
2019-02-15T16:17:07.435Z,4.67
2019-02-15T16:19:40.760Z,7.53
2019-02-15T16:22:05.589Z,4.43
2019-02-15T16:24:33.645Z,5.43
2019-02-15T16:27:01.772Z,6.93
2019-02-15T16:29:29.888Z,6.40
2019-02-15T16:31:57.989Z,4.17
2019-02-15T16:34:26.123Z,5.43
2019-02-15T16:36:54.251Z,6.30
2019-02-15T16:39:22.337Z,9.93
2019-02-15T16:41:50.442Z,8.53
2019-02-15T16:44:18.760Z,4.80
2019-02-15T16:46:47.099Z,5.17
2019-02-15T16:49:15.291Z,5.03
2019-02-15T16:51:43.383Z,6.77
2019-02-15T16:54:11.461Z,10.27
2019-02-15T16:56:39.587Z,9.20
2019-02-15T16:59:07.833Z,9.07
2019-02-15T17:01:35.963Z,5.90
2019-02-15T17:04:04.094Z,5.33
2019-02-15T17:06:32.257Z,6.53
2019-02-15T17:09:00.372Z,7.37
2019-02-15T17:11:28.987Z,13.40
2019-02-15T17:13:57.130Z,10.63
2019-02-15T17:16:25.183Z,12.90
2019-02-15T17:18:53.371Z,8.00
2019-02-15T17:21:21.480Z,7.93
2019-02-15T17:23:49.635Z,10.63
2019-02-15T17:26:17.811Z,11.20
2019-02-15T17:28:45.928Z,8.67
2019-02-15T17:31:14.110Z,8.77
2019-02-15T17:33:42.269Z,7.47
2019-02-15T17:36:10.930Z,7.63
2019-02-15T17:38:39.013Z,7.27
2019-02-15T17:41:07.325Z,9.77
2019-02-15T17:43:36.515Z,9.73
2019-02-15T17:46:04.565Z,11.37
2019-02-15T17:48:32.804Z,7.23
2019-02-15T17:51:00.929Z,7.77
2019-02-15T17:53:29.069Z,10.20
2019-02-15T17:55:57.122Z,8.57
2019-02-15T17:58:25.250Z,9.70
2019-02-15T18:00:53.382Z,8.37
2019-02-15T18:03:21.514Z,7.83
2019-02-15T18:05:49.598Z,9.60
2019-02-15T18:08:17.723Z,7.37
2019-02-15T18:10:45.793Z,9.27
2019-02-15T18:13:13.947Z,13.30
2019-02-15T18:15:42.202Z,21.83
2019-02-15T18:18:10.290Z,22.47
2019-02-15T18:20:38.380Z,18.53
2019-02-15T18:23:07.194Z,13.70
2019-02-15T18:25:35.448Z,10.43
2019-02-15T18:28:03.563Z,12.13
2019-02-15T18:30:31.672Z,14.00
2019-02-15T18:32:59.775Z,14.47
2019-02-15T18:35:27.868Z,15.67
2019-02-15T18:37:56.369Z,14.13
2019-02-15T18:40:24.461Z,10.87
2019-02-15T18:42:52.575Z,9.90
2019-02-15T18:45:28.219Z,10.67
2019-02-15T18:47:56.475Z,8.70
2019-02-15T18:50:24.734Z,10.07
2019-02-15T18:52:52.969Z,8.10
2019-02-15T18:55:21.529Z,12.67
2019-02-15T18:57:49.658Z,9.93
2019-02-15T19:00:17.893Z,9.03
2019-02-15T19:02:46.265Z,10.33
2019-02-15T19:05:14.441Z,15.80
2019-02-15T19:07:42.605Z,9.60
2019-02-15T19:10:13.741Z,9.53
2019-02-15T19:12:41.979Z,13.27
2019-02-15T19:15:13.237Z,10.00
2019-02-15T19:17:41.315Z,9.73
2019-02-15T19:20:10.324Z,14.63
2019-02-15T19:22:38.475Z,11.90
2019-02-15T19:25:08.956Z,11.47
2019-02-15T19:27:37.725Z,9.97
2019-02-15T19:30:10.831Z,10.13
2019-02-15T19:32:39.208Z,11.03
2019-02-15T19:35:07.593Z,11.70
2019-02-15T19:37:35.663Z,15.17
2019-02-15T19:40:05.104Z,13.13
2019-02-15T19:42:33.147Z,13.03
2019-02-15T19:45:01.375Z,14.27
2019-02-15T19:47:29.620Z,12.77
2019-02-15T19:49:57.825Z,11.47
2019-02-15T19:52:25.992Z,15.77
2019-02-15T19:54:54.405Z,11.40
2019-02-15T19:57:22.579Z,10.73
2019-02-15T19:59:53.742Z,9.43
2019-02-15T20:02:21.815Z,8.97
2019-02-15T20:04:50.547Z,9.13
2019-02-15T20:07:19.033Z,10.63
2019-02-15T20:09:47.429Z,13.70
2019-02-15T20:12:16.108Z,7.57
2019-02-15T20:14:44.742Z,8.17
2019-02-15T20:17:13.281Z,9.20
2019-02-15T20:19:48.793Z,9.10
2019-02-15T20:22:12.973Z,6.27
2019-02-15T20:24:41.545Z,8.47
2019-02-15T20:27:09.971Z,9.00
2019-02-15T20:29:38.270Z,7.73
2019-02-15T20:32:07.397Z,9.60
2019-02-15T20:34:45.030Z,9.40
2019-02-15T20:37:06.656Z,9.00
2019-02-15T20:39:35.329Z,9.67
2019-02-15T20:42:04.010Z,7.70
2019-02-15T20:44:32.372Z,8.97
2019-02-15T20:47:00.596Z,9.10
2019-02-15T20:49:29.440Z,8.97
2019-02-15T20:51:57.913Z,12.80
2019-02-15T20:54:26.764Z,11.33
2019-02-15T20:56:54.991Z,11.17
2019-02-15T20:59:23.282Z,9.53
2019-02-15T21:01:51.932Z,11.63
2019-02-15T21:04:20.035Z,7.67
2019-02-15T21:06:48.122Z,10.20
2019-02-15T21:09:17.449Z,10.70
2019-02-15T21:11:45.550Z,9.37
2019-02-15T21:14:14.051Z,10.07
2019-02-15T21:16:42.189Z,9.80
2019-02-15T21:19:10.279Z,10.97
2019-02-15T21:21:38.380Z,8.37
2019-02-15T21:24:06.477Z,8.13
2019-02-15T21:26:34.855Z,10.63
2019-02-15T21:29:02.925Z,11.43
2019-02-15T21:31:31.033Z,9.03
2019-02-15T21:33:59.152Z,10.23
2019-02-15T21:36:27.199Z,9.50
2019-02-15T21:38:55.407Z,10.33
2019-02-15T21:41:23.455Z,5.53
2019-02-15T21:43:51.562Z,6.47
2019-02-15T21:46:19.882Z,7.27
2019-02-15T21:48:48.393Z,9.97
2019-02-15T21:51:16.493Z,6.70
2019-02-15T21:53:44.602Z,7.43
2019-02-15T21:56:13.294Z,9.30
2019-02-15T21:58:41.760Z,6.07
2019-02-15T22:01:09.977Z,7.37
2019-02-15T22:03:38.126Z,7.40
2019-02-15T22:06:06.202Z,7.23
2019-02-15T22:08:34.301Z,7.10
2019-02-15T22:11:02.389Z,6.37
2019-02-15T22:13:30.453Z,8.20
2019-02-15T22:15:58.673Z,5.97
2019-02-15T22:18:26.733Z,7.50
2019-02-15T22:20:55.275Z,6.07
2019-02-15T22:23:23.357Z,7.00
2019-02-15T22:25:51.424Z,7.40
2019-02-15T22:28:19.611Z,8.70
2019-02-15T22:30:47.895Z,6.63
2019-02-15T22:33:15.922Z,6.87
2019-02-15T22:35:44.056Z,7.40
2019-02-15T22:38:12.086Z,6.70
2019-02-15T22:40:42.507Z,6.63
2019-02-15T22:43:22.535Z,8.20
2019-02-15T22:45:50.668Z,10.43
2019-02-15T22:48:18.748Z,7.93
2019-02-15T22:50:47.142Z,7.47
2019-02-15T22:53:15.307Z,9.47
2019-02-15T22:55:43.732Z,6.60
2019-02-15T22:58:11.921Z,9.50
2019-02-15T23:00:53.673Z,5.67
2019-02-15T23:03:25.973Z,6.23
2019-02-15T23:05:54.213Z,7.63
2019-02-15T23:08:22.642Z,7.70
2019-02-15T23:10:52.867Z,7.70
2019-02-15T23:13:22.085Z,7.97
2019-02-15T23:15:50.267Z,5.63
2019-02-15T23:18:19.168Z,6.57
2019-02-15T23:20:47.468Z,8.47
2019-02-15T23:23:15.551Z,6.97
2019-02-15T23:25:43.678Z,8.70
2019-02-15T23:28:11.973Z,6.33
2019-02-15T23:30:40.132Z,6.50
2019-02-15T23:33:08.226Z,7.10
2019-02-15T23:35:36.296Z,7.57
2019-02-15T23:38:04.554Z,6.30
2019-02-15T23:40:32.981Z,7.27
2019-02-15T23:43:01.064Z,6.10
2019-02-15T23:45:29.162Z,5.70
2019-02-15T23:47:57.228Z,6.93
2019-02-15T23:50:25.422Z,6.77
2019-02-15T23:52:53.462Z,5.33
2019-02-15T23:55:21.659Z,6.77
2019-02-15T23:57:50.104Z,5.17
